Главная страница
METAR-TAF:

METAR-TAF

Аэропорты :

Lycksele, Швеция

широта: 64-32-51N, долгота: 018-43-03E, высота над уровнем моря: 211 м

Текущие метеонаблюдения

Эта сводка был подготовлена 16 минут назад, в 11:50 UTC
Ветер 17 Узел от западно-северо-западный
Температура 18°C
Влажность 45%
Давление 1022 hPa
Видимость 10 км и более
Нет облачности ниже 1500 м, и нет кучево-дождевой облачности

METAR: ESNL 091150Z 29017KT CAVOK 18/06 Q1022

Время: 14:06 (12:06 UTC)


TAF: отсутствует

Метеонаблюдения и прогнозы для более 4000 аэропортов (сводки METAR и TAF).

Имеющиеся станции представлены на карте желтыми и красными точками.

Чтобы увидеть название станции, наведите на нее мышь.

Затем щелкните, чтобы увидеть метеонаблюдения и метеопрогнозы.

Управление картой: чтобы увеличить масштаб, щелкните зеленые кнопки с черным крестиком; чтобы уменьшить масштаб, щелкните зеленую кнопку с тире; для просмотра соседних карт щелкайте зеленые стрелки.


METAR-TAF: